createdAt,value
2019-01-25T00:00:13.731Z,90.70
2019-01-25T00:02:42.204Z,90.70
2019-01-25T00:05:11.311Z,90.60
2019-01-25T00:07:39.759Z,90.70
2019-01-25T00:10:09.807Z,90.60
2019-01-25T00:12:38.222Z,90.40
2019-01-25T00:15:09.662Z,90.40
2019-01-25T00:17:38.073Z,90.30
2019-01-25T00:20:11.794Z,90.30
2019-01-25T00:22:40.540Z,90.60
2019-01-25T00:25:09.767Z,90.20
2019-01-25T00:27:38.257Z,89.80
2019-01-25T00:30:18.998Z,89.70
2019-01-25T00:32:47.447Z,90.10
2019-01-25T00:35:16.009Z,90.10
2019-01-25T00:37:44.455Z,90.10
2019-01-25T00:40:16.339Z,90.30
2019-01-25T00:42:44.754Z,90.40
2019-01-25T00:45:34.039Z,90.20
2019-01-25T00:48:02.741Z,90.00
2019-01-25T00:50:31.205Z,89.30
2019-01-25T00:52:59.633Z,89.10
2019-01-25T00:55:28.373Z,89.50
2019-01-25T00:57:56.833Z,90.00
2019-01-25T01:00:26.730Z,90.30
2019-01-25T01:02:55.175Z,90.40
2019-01-25T01:05:23.927Z,90.40
2019-01-25T01:07:52.487Z,90.40
2019-01-25T01:10:22.164Z,90.70
2019-01-25T01:12:51.239Z,90.60
2019-01-25T01:15:20.335Z,90.40
2019-01-25T01:17:49.245Z,90.40
2019-01-25T01:20:19.618Z,90.40
2019-01-25T01:22:48.778Z,90.50
2019-01-25T01:25:17.368Z,90.70
2019-01-25T01:27:45.898Z,90.60
2019-01-25T01:30:17.435Z,90.70
2019-01-25T01:32:45.849Z,91.00
2019-01-25T01:35:14.348Z,91.00
2019-01-25T01:37:42.837Z,91.30
2019-01-25T01:40:21.973Z,91.40
2019-01-25T01:42:50.502Z,91.30
2019-01-25T01:45:19.237Z,91.50
2019-01-25T01:47:47.757Z,91.60
2019-01-25T01:50:18.124Z,92.00
2019-01-25T01:52:47.474Z,92.20
2019-01-25T01:55:16.003Z,92.00
2019-01-25T01:57:44.674Z,92.10
2019-01-25T02:00:16.482Z,92.20
2019-01-25T02:02:44.963Z,92.20
2019-01-25T02:05:13.563Z,92.20
2019-01-25T02:07:42.083Z,92.30
2019-01-25T02:10:16.067Z,92.20
2019-01-25T02:12:44.584Z,92.30
2019-01-25T02:15:15.906Z,92.30
2019-01-25T02:17:44.506Z,92.10
2019-01-25T02:20:24.433Z,92.10
2019-01-25T02:22:53.199Z,91.90
2019-01-25T02:25:21.626Z,92.10
2019-01-25T02:27:50.041Z,92.30
2019-01-25T02:30:20.617Z,92.00
2019-01-25T02:32:49.138Z,92.00
2019-01-25T02:35:17.692Z,91.90
2019-01-25T02:37:46.185Z,91.90
2019-01-25T02:40:20.020Z,91.60
2019-01-25T02:42:48.664Z,91.50
2019-01-25T02:45:17.193Z,91.40
2019-01-25T02:47:45.687Z,91.10
2019-01-25T02:50:16.250Z,91.10
2019-01-25T02:52:44.673Z,91.40
2019-01-25T02:55:14.881Z,91.50
2019-01-25T02:57:43.515Z,91.20
2019-01-25T03:00:22.611Z,91.10
2019-01-25T03:03:12.159Z,91.00
2019-01-25T03:05:40.843Z,91.30
2019-01-25T03:08:09.660Z,91.10
2019-01-25T03:10:38.141Z,91.00
2019-01-25T03:13:06.884Z,90.70
2019-01-25T03:15:35.568Z,90.70
2019-01-25T03:18:04.724Z,90.60
2019-01-25T03:20:33.145Z,90.70
2019-01-25T03:23:01.574Z,90.90
2019-01-25T03:25:29.995Z,90.70
2019-01-25T03:27:58.461Z,90.60
2019-01-25T03:30:27.268Z,90.20
2019-01-25T03:32:55.993Z,90.20
2019-01-25T03:35:25.616Z,90.40
2019-01-25T03:37:54.780Z,90.40
2019-01-25T03:40:42.573Z,90.50
2019-01-25T03:43:11.001Z,90.60
2019-01-25T03:45:39.463Z,90.20
2019-01-25T03:48:08.313Z,90.40
2019-01-25T03:50:36.807Z,90.40
2019-01-25T03:53:05.704Z,90.20
2019-01-25T03:55:34.341Z,90.40
2019-01-25T03:58:02.810Z,90.60
2019-01-25T04:00:31.225Z,90.40
2019-01-25T04:02:59.719Z,90.50
2019-01-25T04:05:28.203Z,90.10
2019-01-25T04:07:56.635Z,90.00
2019-01-25T04:10:27.092Z,90.00
2019-01-25T04:12:55.521Z,90.00
2019-01-25T04:15:27.329Z,89.60
2019-01-25T04:17:55.761Z,89.10
2019-01-25T04:20:24.432Z,88.80
2019-01-25T04:22:53.327Z,88.20
2019-01-25T04:25:23.177Z,87.90
2019-01-25T04:27:52.540Z,87.80
2019-01-25T04:30:23.666Z,87.80
2019-01-25T04:32:52.613Z,87.60
2019-01-25T04:35:21.040Z,87.80
2019-01-25T04:37:49.460Z,87.80
2019-01-25T04:40:18.717Z,87.20
2019-01-25T04:42:47.569Z,87.40
2019-01-25T04:45:20.998Z,87.40
2019-01-25T04:47:49.644Z,86.80
2019-01-25T04:50:23.115Z,86.80
2019-01-25T04:52:51.935Z,87.00
2019-01-25T04:55:28.944Z,87.30
2019-01-25T04:58:05.772Z,86.90
2019-01-25T05:00:34.185Z,86.60
2019-01-25T05:03:02.609Z,86.10
2019-01-25T05:05:31.477Z,86.50
2019-01-25T05:08:09.167Z,86.60
2019-01-25T05:10:37.635Z,86.90
2019-01-25T05:13:06.121Z,86.70
2019-01-25T05:15:34.547Z,86.50
2019-01-25T05:18:02.953Z,86.00
2019-01-25T05:20:31.457Z,86.20
2019-01-25T05:23:06.072Z,86.10
2019-01-25T05:25:34.499Z,86.60
2019-01-25T05:28:09.815Z,86.30
2019-01-25T05:30:38.613Z,86.20
2019-01-25T05:33:07.034Z,86.00
2019-01-25T05:35:37.133Z,86.00
2019-01-25T05:38:05.621Z,86.40
2019-01-25T05:40:34.050Z,87.00
2019-01-25T05:43:02.717Z,86.70
2019-01-25T05:45:31.137Z,85.80
2019-01-25T05:47:59.549Z,86.10
2019-01-25T05:50:27.973Z,85.90
2019-01-25T05:52:56.386Z,85.90
2019-01-25T05:55:25.095Z,85.90
2019-01-25T05:58:02.287Z,85.80
2019-01-25T06:00:37.914Z,85.60
2019-01-25T06:03:11.779Z,85.40
2019-01-25T06:05:40.311Z,85.80
2019-01-25T06:08:30.443Z,85.80
2019-01-25T06:11:01.057Z,85.80
2019-01-25T06:13:29.543Z,85.30
2019-01-25T06:15:58.266Z,85.50
2019-01-25T06:18:26.826Z,85.70
2019-01-25T06:20:57.453Z,85.40
2019-01-25T06:23:25.936Z,85.20
2019-01-25T06:25:56.201Z,85.50
2019-01-25T06:28:24.757Z,85.40
2019-01-25T06:30:53.484Z,86.10
2019-01-25T06:33:22.057Z,86.20
2019-01-25T06:35:50.540Z,85.60
2019-01-25T06:38:19.176Z,85.50
2019-01-25T06:40:47.809Z,86.00
2019-01-25T06:43:16.269Z,86.40
2019-01-25T06:45:44.693Z,86.90
2019-01-25T06:48:13.176Z,86.90
2019-01-25T06:50:41.824Z,86.60
2019-01-25T06:53:10.278Z,86.30
2019-01-25T06:55:38.707Z,86.50
2019-01-25T06:58:11.719Z,86.10
2019-01-25T07:00:47.581Z,86.70
2019-01-25T07:03:16.249Z,86.90
2019-01-25T07:05:44.683Z,86.40
2019-01-25T07:08:14.740Z,86.60
2019-01-25T07:10:43.383Z,86.90
2019-01-25T07:13:12.050Z,86.40
2019-01-25T07:15:40.502Z,86.90
2019-01-25T07:18:08.929Z,87.40
2019-01-25T07:20:37.601Z,87.50
2019-01-25T07:23:06.246Z,87.30
2019-01-25T07:25:34.701Z,87.60
2019-01-25T07:28:03.133Z,87.70
2019-01-25T07:30:31.550Z,87.80
2019-01-25T07:32:59.976Z,87.80
2019-01-25T07:35:28.615Z,87.40
2019-01-25T07:37:57.310Z,87.70
2019-01-25T07:40:25.924Z,87.80
2019-01-25T07:42:54.349Z,87.90
2019-01-25T07:45:22.834Z,87.90
2019-01-25T07:47:51.270Z,87.80
2019-01-25T07:50:19.677Z,88.10
2019-01-25T07:52:48.199Z,88.70
2019-01-25T07:55:16.734Z,89.20
2019-01-25T07:57:45.154Z,89.40
2019-01-25T08:00:17.075Z,89.30
2019-01-25T08:02:45.536Z,89.00
2019-01-25T08:05:14.046Z,89.00
2019-01-25T08:07:42.573Z,89.60
2019-01-25T08:10:24.305Z,90.00
2019-01-25T08:12:52.800Z,90.30
2019-01-25T08:15:25.866Z,90.40
2019-01-25T08:17:54.633Z,90.60
2019-01-25T08:20:23.384Z,90.90
2019-01-25T08:22:52.077Z,90.80
2019-01-25T08:25:20.565Z,90.70
2019-01-25T08:27:49.347Z,90.70
2019-01-25T08:30:22.305Z,90.70
2019-01-25T08:32:51.680Z,90.60
2019-01-25T08:35:21.301Z,90.60
2019-01-25T08:37:50.045Z,90.60
2019-01-25T08:40:18.834Z,90.70
2019-01-25T08:42:47.435Z,90.60
2019-01-25T08:45:17.454Z,90.70
2019-01-25T08:47:45.878Z,91.00
2019-01-25T08:50:17.574Z,91.10
2019-01-25T08:52:46.029Z,90.70
2019-01-25T08:55:14.989Z,90.50
2019-01-25T08:57:43.614Z,90.60
2019-01-25T09:00:15.662Z,90.60
2019-01-25T09:02:44.379Z,90.70
2019-01-25T09:05:13.192Z,90.70
2019-01-25T09:07:41.749Z,90.60
2019-01-25T09:10:16.025Z,91.00
2019-01-25T09:12:44.432Z,90.50
2019-01-25T09:15:16.214Z,90.70
2019-01-25T09:17:44.919Z,91.10
2019-01-25T09:20:16.495Z,90.80
2019-01-25T09:22:45.149Z,90.30
2019-01-25T09:25:13.818Z,90.20
2019-01-25T09:27:42.233Z,88.70
2019-01-25T09:30:21.671Z,88.20
2019-01-25T09:32:50.095Z,87.60
2019-01-25T09:35:18.760Z,87.20
2019-01-25T09:37:47.718Z,87.20
2019-01-25T09:40:18.581Z,85.80
2019-01-25T09:42:47.076Z,85.40
2019-01-25T09:45:15.741Z,85.70
2019-01-25T09:47:44.395Z,85.00
2019-01-25T09:50:18.656Z,84.00
2019-01-25T09:52:47.306Z,85.00
2019-01-25T09:55:24.248Z,84.50
2019-01-25T09:57:51.821Z,85.70
2019-01-25T10:00:32.067Z,87.20
2019-01-25T10:03:00.481Z,87.40
2019-01-25T10:05:29.082Z,88.90
2019-01-25T10:07:57.490Z,89.50
2019-01-25T10:10:25.909Z,89.10
2019-01-25T10:12:54.558Z,88.80
2019-01-25T10:15:25.778Z,89.30
2019-01-25T10:17:54.202Z,89.50
2019-01-25T10:20:22.612Z,88.50
2019-01-25T10:22:51.043Z,88.20
2019-01-25T10:25:19.533Z,85.90
2019-01-25T10:27:48.024Z,84.80
2019-01-25T10:30:22.046Z,85.30
2019-01-25T10:32:50.475Z,84.30
2019-01-25T10:35:19.177Z,83.90
2019-01-25T10:37:48.152Z,84.10
2019-01-25T10:40:23.925Z,85.00
2019-01-25T10:42:55.889Z,84.80
2019-01-25T10:45:29.911Z,85.40
2019-01-25T10:47:58.421Z,85.40
2019-01-25T10:50:26.846Z,84.30
2019-01-25T10:52:55.619Z,82.70
2019-01-25T10:55:24.140Z,82.40
2019-01-25T10:57:52.560Z,79.90
2019-01-25T11:00:23.019Z,78.50
2019-01-25T11:02:58.157Z,76.40
2019-01-25T11:05:24.415Z,75.90
2019-01-25T11:07:52.949Z,75.90
2019-01-25T11:10:21.621Z,73.60
2019-01-25T11:12:50.051Z,72.70
2019-01-25T11:15:21.777Z,73.50
2019-01-25T11:17:50.671Z,73.20
2019-01-25T11:20:21.421Z,72.20
2019-01-25T11:22:49.844Z,71.80
2019-01-25T11:25:26.942Z,71.40
2019-01-25T11:27:55.381Z,69.30
2019-01-25T11:30:23.865Z,69.00
2019-01-25T11:32:52.290Z,69.20
2019-01-25T11:35:20.727Z,69.90
2019-01-25T11:37:49.214Z,71.00
2019-01-25T11:40:32.324Z,69.30
2019-01-25T11:43:08.207Z,69.40
2019-01-25T11:45:30.896Z,68.90
2019-01-25T11:47:59.641Z,66.40
2019-01-25T11:50:28.102Z,66.40
2019-01-25T11:52:56.522Z,66.00
2019-01-25T11:55:25.228Z,65.50
2019-01-25T11:57:53.682Z,64.90
2019-01-25T12:00:27.946Z,63.40
2019-01-25T12:02:56.606Z,62.10
2019-01-25T12:05:25.694Z,60.30
2019-01-25T12:07:55.258Z,57.20
2019-01-25T12:10:29.519Z,56.30
2019-01-25T12:12:57.934Z,56.40
2019-01-25T12:15:26.369Z,57.30
2019-01-25T12:17:54.789Z,60.00
2019-01-25T12:20:28.173Z,59.70
2019-01-25T12:22:56.589Z,58.70
2019-01-25T12:25:25.080Z,58.10
2019-01-25T12:27:53.509Z,59.10
2019-01-25T12:30:30.737Z,57.70
2019-01-25T12:32:59.400Z,58.10
2019-01-25T12:35:30.670Z,58.60
2019-01-25T12:37:59.342Z,60.00
2019-01-25T12:40:27.870Z,61.70
2019-01-25T12:42:56.274Z,62.00
2019-01-25T12:45:27.426Z,63.10
2019-01-25T12:47:56.165Z,62.60
2019-01-25T12:50:48.987Z,63.00
2019-01-25T12:53:15.569Z,62.40
2019-01-25T12:55:44.294Z,62.20
2019-01-25T12:58:12.749Z,62.10
2019-01-25T13:00:41.527Z,62.80
2019-01-25T13:03:11.716Z,64.50
2019-01-25T13:05:40.346Z,65.70
2019-01-25T13:08:09.059Z,66.70
2019-01-25T13:10:37.510Z,67.20
2019-01-25T13:13:06.010Z,67.70
2019-01-25T13:15:34.424Z,67.50
2019-01-25T13:18:02.850Z,69.00
2019-01-25T13:20:31.889Z,70.00
2019-01-25T13:23:00.317Z,69.70
2019-01-25T13:25:28.958Z,69.50
2019-01-25T13:27:57.714Z,70.70
2019-01-25T13:30:31.211Z,70.20
2019-01-25T13:33:00.908Z,70.40
2019-01-25T13:35:29.466Z,69.20
2019-01-25T13:37:57.897Z,68.50
2019-01-25T13:40:27.665Z,67.20
2019-01-25T13:42:56.328Z,66.80
2019-01-25T13:45:24.881Z,65.40
2019-01-25T13:47:53.494Z,65.00
2019-01-25T13:50:44.362Z,64.80
2019-01-25T13:53:12.786Z,64.70
2019-01-25T13:55:42.765Z,65.00
2019-01-25T13:58:15.417Z,64.30
2019-01-25T14:00:43.883Z,64.40
2019-01-25T14:03:12.323Z,65.50
2019-01-25T14:05:40.735Z,64.00
2019-01-25T14:08:09.157Z,62.70
2019-01-25T14:10:37.805Z,63.60
2019-01-25T14:13:06.413Z,63.20
2019-01-25T14:15:34.901Z,62.20
2019-01-25T14:18:03.339Z,62.40
2019-01-25T14:20:34.797Z,63.30
2019-01-25T14:23:03.546Z,62.00
2019-01-25T14:25:32.010Z,62.30
2019-01-25T14:28:00.470Z,63.90
2019-01-25T14:30:32.031Z,64.80
2019-01-25T14:33:00.493Z,64.90
2019-01-25T14:35:29.038Z,64.80
2019-01-25T14:37:57.534Z,65.90
2019-01-25T14:40:26.381Z,66.20
2019-01-25T14:42:54.809Z,67.00
2019-01-25T14:45:23.540Z,68.30
2019-01-25T14:47:52.067Z,69.70
2019-01-25T14:50:23.212Z,72.60
2019-01-25T14:52:51.894Z,74.00
2019-01-25T14:55:20.324Z,74.00
2019-01-25T14:57:48.732Z,73.90
2019-01-25T15:00:17.187Z,72.10
2019-01-25T15:02:45.724Z,71.30
2019-01-25T15:05:16.468Z,71.70
2019-01-25T15:07:45.152Z,70.20
2019-01-25T15:10:18.903Z,70.00
2019-01-25T15:12:48.003Z,67.60
2019-01-25T15:15:16.513Z,67.30
2019-01-25T15:17:44.927Z,66.80
2019-01-25T15:20:16.664Z,66.50
2019-01-25T15:22:45.082Z,65.10
2019-01-25T15:25:13.916Z,65.90
2019-01-25T15:27:42.445Z,64.50
2019-01-25T15:30:13.947Z,64.40
2019-01-25T15:32:42.733Z,63.90
2019-01-25T15:35:13.202Z,64.30
2019-01-25T15:37:41.619Z,65.50
2019-01-25T15:40:12.513Z,64.60
2019-01-25T15:42:41.002Z,64.80
2019-01-25T15:45:14.922Z,65.20
2019-01-25T15:47:43.334Z,65.50
2019-01-25T15:50:15.016Z,66.00
2019-01-25T15:52:43.498Z,66.50
2019-01-25T15:55:12.136Z,66.50
2019-01-25T15:57:40.853Z,66.40
2019-01-25T16:00:15.350Z,67.40
2019-01-25T16:02:43.834Z,67.40
2019-01-25T16:05:14.510Z,68.00
2019-01-25T16:07:43.000Z,67.70
2019-01-25T16:10:19.725Z,68.20
2019-01-25T16:12:48.398Z,68.70
2019-01-25T16:15:21.588Z,68.60
2019-01-25T16:17:50.229Z,68.40
2019-01-25T16:20:19.295Z,68.60
2019-01-25T16:22:49.206Z,68.90
2019-01-25T16:25:23.156Z,69.10
2019-01-25T16:27:51.574Z,69.20
2019-01-25T16:30:23.301Z,69.50
2019-01-25T16:32:51.882Z,69.90
2019-01-25T16:35:20.370Z,70.70
2019-01-25T16:37:48.810Z,70.60
2019-01-25T16:40:20.190Z,71.20
2019-01-25T16:42:48.751Z,72.10
2019-01-25T16:45:19.927Z,72.70
2019-01-25T16:47:48.349Z,72.70
2019-01-25T16:50:23.655Z,72.70
2019-01-25T16:52:47.679Z,72.90
2019-01-25T16:55:16.542Z,74.10
2019-01-25T16:57:46.322Z,74.00
2019-01-25T17:00:26.437Z,74.10
2019-01-25T17:02:54.986Z,74.60
2019-01-25T17:05:23.715Z,75.10
2019-01-25T17:07:52.263Z,74.90
2019-01-25T17:10:21.162Z,75.00
2019-01-25T17:12:49.999Z,75.20
2019-01-25T17:15:18.828Z,75.70
2019-01-25T17:17:48.731Z,75.20
2019-01-25T17:20:26.530Z,74.90
2019-01-25T17:22:54.966Z,75.00
2019-01-25T17:25:23.440Z,75.20
2019-01-25T17:27:52.035Z,75.20
2019-01-25T17:30:25.176Z,75.30
2019-01-25T17:32:54.958Z,75.20
2019-01-25T17:35:24.011Z,75.00
2019-01-25T17:37:52.955Z,75.30
2019-01-25T17:40:28.750Z,75.10
2019-01-25T17:42:57.539Z,75.20
2019-01-25T17:45:26.445Z,75.10
2019-01-25T17:47:55.255Z,75.00
2019-01-25T17:50:24.065Z,75.10
2019-01-25T17:52:54.065Z,75.40
2019-01-25T17:55:22.940Z,74.80
2019-01-25T17:57:51.871Z,74.90
2019-01-25T18:00:29.638Z,74.90
2019-01-25T18:02:58.536Z,74.80
2019-01-25T18:05:27.303Z,74.70
2019-01-25T18:07:56.229Z,74.60
2019-01-25T18:10:25.940Z,74.80
2019-01-25T18:12:54.846Z,75.30
2019-01-25T18:15:23.674Z,75.40
2019-01-25T18:17:52.531Z,75.00
2019-01-25T18:20:23.078Z,75.20
2019-01-25T18:22:52.087Z,75.20
2019-01-25T18:25:23.888Z,75.10
2019-01-25T18:27:55.670Z,75.10
2019-01-25T18:30:30.330Z,75.30
2019-01-25T18:32:59.232Z,75.60
2019-01-25T18:35:28.137Z,75.60
2019-01-25T18:37:57.013Z,76.30
2019-01-25T18:40:26.203Z,76.30
2019-01-25T18:42:55.110Z,76.90
2019-01-25T18:45:23.933Z,77.30
2019-01-25T18:47:52.676Z,77.50
2019-01-25T18:50:21.441Z,77.70
2019-01-25T18:52:49.913Z,77.70
2019-01-25T18:55:21.604Z,77.90
2019-01-25T18:57:50.040Z,77.90
2019-01-25T19:00:20.489Z,77.20
2019-01-25T19:02:49.151Z,77.70
2019-01-25T19:05:18.035Z,78.30
2019-01-25T19:07:46.492Z,78.60
2019-01-25T19:10:27.080Z,79.20
2019-01-25T19:12:55.740Z,79.70
2019-01-25T19:15:27.317Z,79.80
2019-01-25T19:17:55.869Z,80.00
2019-01-25T19:20:24.293Z,80.30
2019-01-25T19:22:52.726Z,80.20
2019-01-25T19:25:21.284Z,80.40
2019-01-25T19:27:50.031Z,80.60
2019-01-25T19:30:36.713Z,80.80
2019-01-25T19:33:05.628Z,81.00
2019-01-25T19:35:34.093Z,80.80
2019-01-25T19:38:02.874Z,81.20
2019-01-25T19:40:33.511Z,81.70
2019-01-25T19:43:01.995Z,82.30
2019-01-25T19:45:30.493Z,82.80
2019-01-25T19:47:58.972Z,83.20
2019-01-25T19:50:27.466Z,83.50
2019-01-25T19:52:56.179Z,83.80
2019-01-25T19:55:30.071Z,84.30
2019-01-25T19:58:00.725Z,84.60
2019-01-25T20:00:40.752Z,85.00
2019-01-25T20:03:09.406Z,85.10
2019-01-25T20:05:38.073Z,85.70
2019-01-25T20:08:06.711Z,86.30
2019-01-25T20:10:35.233Z,87.20
2019-01-25T20:13:04.027Z,87.90
2019-01-25T20:15:32.669Z,88.20
2019-01-25T20:18:01.078Z,88.50
2019-01-25T20:20:34.837Z,89.30
2019-01-25T20:23:03.257Z,89.50
2019-01-25T20:25:31.833Z,90.00
2019-01-25T20:28:00.317Z,90.00
2019-01-25T20:30:30.880Z,90.00
2019-01-25T20:33:00.313Z,90.00
2019-01-25T20:35:30.881Z,90.00
2019-01-25T20:37:59.297Z,90.00
2019-01-25T20:40:28.188Z,90.00
2019-01-25T20:42:56.910Z,89.90
2019-01-25T20:45:30.825Z,89.90
2019-01-25T20:47:59.246Z,90.00
2019-01-25T20:50:29.605Z,89.70
2019-01-25T20:52:58.089Z,89.30
2019-01-25T20:55:26.821Z,88.70
2019-01-25T20:57:56.182Z,88.40
2019-01-25T21:00:35.770Z,88.10
2019-01-25T21:03:05.313Z,87.60
2019-01-25T21:05:33.752Z,87.10
2019-01-25T21:08:02.413Z,86.60
2019-01-25T21:10:31.115Z,86.30
2019-01-25T21:12:59.567Z,86.40
2019-01-25T21:15:35.006Z,85.80
2019-01-25T21:17:59.338Z,85.40
2019-01-25T21:20:30.881Z,85.10
2019-01-25T21:22:59.520Z,84.80
2019-01-25T21:25:28.057Z,84.50
2019-01-25T21:27:56.536Z,84.50
2019-01-25T21:30:27.924Z,84.30
2019-01-25T21:32:56.584Z,84.10
2019-01-25T21:35:25.138Z,84.00
2019-01-25T21:37:53.556Z,83.80
2019-01-25T21:40:24.932Z,83.80
2019-01-25T21:42:53.576Z,83.60
2019-01-25T21:45:24.169Z,83.60
2019-01-25T21:47:52.656Z,83.40
2019-01-25T21:50:26.668Z,83.30
2019-01-25T21:52:55.181Z,83.20
2019-01-25T21:55:23.590Z,83.60
2019-01-25T21:57:52.021Z,83.30
2019-01-25T22:00:45.603Z,83.50
2019-01-25T22:03:14.021Z,83.30
2019-01-25T22:05:42.808Z,83.30
2019-01-25T22:08:11.619Z,83.20
2019-01-25T22:10:43.937Z,83.30
2019-01-25T22:13:12.970Z,83.40
2019-01-25T22:15:41.678Z,83.30
2019-01-25T22:18:10.167Z,83.40
2019-01-25T22:20:38.580Z,83.90
2019-01-25T22:23:07.519Z,83.60
2019-01-25T22:25:35.976Z,83.60
2019-01-25T22:28:04.403Z,83.70
2019-01-25T22:30:33.885Z,84.00
2019-01-25T22:33:02.589Z,84.10
2019-01-25T22:35:30.997Z,84.00
2019-01-25T22:37:59.414Z,84.20
2019-01-25T22:40:29.576Z,84.20
2019-01-25T22:42:58.062Z,84.10
2019-01-25T22:45:28.413Z,84.40
2019-01-25T22:47:57.878Z,84.20
2019-01-25T22:50:30.974Z,84.30
2019-01-25T22:52:59.665Z,84.30
2019-01-25T22:55:28.849Z,84.20
2019-01-25T22:57:57.758Z,84.00
2019-01-25T23:00:49.939Z,84.10
2019-01-25T23:03:30.661Z,84.00
2019-01-25T23:06:18.930Z,83.60
2019-01-25T23:08:47.601Z,83.60
2019-01-25T23:11:16.085Z,83.50
2019-01-25T23:13:44.497Z,83.20
2019-01-25T23:16:12.913Z,82.90
2019-01-25T23:18:41.585Z,82.40
2019-01-25T23:21:10.064Z,82.20
2019-01-25T23:23:38.485Z,81.90
2019-01-25T23:26:06.900Z,81.80
2019-01-25T23:28:35.532Z,81.20
2019-01-25T23:31:04.053Z,80.90
2019-01-25T23:33:32.726Z,80.90
2019-01-25T23:36:01.168Z,80.90
2019-01-25T23:38:29.879Z,80.40
2019-01-25T23:40:58.286Z,79.90
2019-01-25T23:43:26.949Z,79.80
2019-01-25T23:45:55.357Z,79.70
2019-01-25T23:48:23.996Z,79.00
2019-01-25T23:50:52.445Z,78.90
2019-01-25T23:53:21.131Z,79.20
2019-01-25T23:55:49.789Z,78.80
2019-01-25T23:58:18.201Z,78.80
